createdAt,value
2018-02-21T00:00:22.344Z,42.50
2018-02-21T00:02:49.577Z,42.20
2018-02-21T00:05:16.006Z,42.40
2018-02-21T00:07:42.455Z,42.20
2018-02-21T00:10:08.637Z,43.00
2018-02-21T00:12:34.829Z,42.20
2018-02-21T00:15:01.110Z,42.50
2018-02-21T00:17:27.323Z,42.20
2018-02-21T00:19:53.533Z,42.40
2018-02-21T00:22:19.806Z,43.10
2018-02-21T00:24:45.981Z,42.70
2018-02-21T00:27:12.202Z,43.40
2018-02-21T00:29:38.428Z,43.60
2018-02-21T00:32:04.669Z,42.80
2018-02-21T00:34:30.865Z,43.10
2018-02-21T00:36:57.801Z,43.10
2018-02-21T00:39:24.122Z,42.90
2018-02-21T00:41:50.313Z,43.80
2018-02-21T00:44:17.253Z,43.70
2018-02-21T00:46:43.520Z,43.70
2018-02-21T00:49:09.716Z,44.30
2018-02-21T00:51:35.923Z,43.40
2018-02-21T00:54:02.188Z,43.50
2018-02-21T00:56:28.400Z,43.50
2018-02-21T00:58:54.621Z,44.10
2018-02-21T01:01:20.882Z,43.60
2018-02-21T01:03:47.108Z,43.80
2018-02-21T01:06:14.033Z,43.90
2018-02-21T01:08:40.260Z,43.90
2018-02-21T01:11:06.464Z,43.60
2018-02-21T01:13:32.657Z,43.80
2018-02-21T01:15:58.869Z,44.20
2018-02-21T01:20:57.424Z,45.10
2018-02-21T01:23:23.807Z,44.40
2018-02-21T01:25:49.994Z,43.80
2018-02-21T01:28:16.168Z,44.50
2018-02-21T01:30:43.349Z,44.00
2018-02-21T01:33:09.561Z,43.30
2018-02-21T01:35:35.750Z,44.80
2018-02-21T01:38:02.040Z,44.70
2018-02-21T01:40:28.262Z,45.00
2018-02-21T01:42:54.416Z,44.80
2018-02-21T01:45:20.623Z,44.80
2018-02-21T01:47:46.881Z,44.60
2018-02-21T01:50:13.144Z,45.10
2018-02-21T01:52:39.309Z,45.40
2018-02-21T01:55:06.532Z,45.50
2018-02-21T01:57:32.718Z,45.50
2018-02-21T01:59:58.938Z,44.90
2018-02-21T02:02:25.178Z,45.40
2018-02-21T02:04:52.160Z,46.10
2018-02-21T02:07:18.377Z,46.10
2018-02-21T02:09:44.596Z,45.70
2018-02-21T02:12:10.806Z,46.80
2018-02-21T02:14:36.989Z,46.30
2018-02-21T02:17:04.088Z,46.50
2018-02-21T02:19:30.281Z,46.40
2018-02-21T02:21:56.457Z,46.90
2018-02-21T02:24:22.678Z,46.80
2018-02-21T02:26:49.786Z,46.90
2018-02-21T02:29:16.828Z,46.90
2018-02-21T02:31:43.071Z,46.90
2018-02-21T02:34:09.992Z,46.90
2018-02-21T02:36:36.224Z,47.00
2018-02-21T02:39:14.653Z,47.00
2018-02-21T02:41:40.928Z,46.90
2018-02-21T02:44:07.106Z,47.00
2018-02-21T02:46:33.365Z,46.90
2018-02-21T02:49:00.530Z,47.00
2018-02-21T02:51:26.746Z,47.00
2018-02-21T02:53:52.944Z,47.40
2018-02-21T02:56:19.899Z,47.90
2018-02-21T02:58:47.092Z,47.70
2018-02-21T03:01:13.310Z,47.70
2018-02-21T03:03:40.261Z,48.20
2018-02-21T03:06:06.673Z,48.20
2018-02-21T03:08:32.922Z,49.10
2018-02-21T03:10:59.125Z,48.50
2018-02-21T03:13:25.613Z,48.40
2018-02-21T03:15:51.813Z,48.20
2018-02-21T03:18:18.012Z,48.50
2018-02-21T03:20:44.976Z,48.60
2018-02-21T03:23:11.340Z,48.50
2018-02-21T03:25:37.533Z,48.70
2018-02-21T03:28:03.729Z,49.00
2018-02-21T03:30:30.438Z,48.90
2018-02-21T03:32:56.669Z,49.00
2018-02-21T03:35:22.872Z,48.70
2018-02-21T03:37:49.303Z,48.90
2018-02-21T03:40:15.508Z,49.30
2018-02-21T03:42:41.725Z,49.00
2018-02-21T03:45:08.164Z,49.30
2018-02-21T03:47:34.371Z,49.20
2018-02-21T03:50:00.616Z,49.50
2018-02-21T03:52:26.972Z,49.90
2018-02-21T03:54:53.150Z,49.20
2018-02-21T03:57:19.405Z,49.20
2018-02-21T03:59:45.716Z,49.00
2018-02-21T04:02:11.921Z,49.20
2018-02-21T04:04:38.156Z,48.60
2018-02-21T04:07:04.497Z,49.00
2018-02-21T04:09:30.697Z,49.20
2018-02-21T04:11:56.908Z,48.40
2018-02-21T04:14:23.202Z,49.30
2018-02-21T04:16:50.234Z,49.40
2018-02-21T04:19:16.450Z,48.90
2018-02-21T04:21:42.711Z,48.10
2018-02-21T04:24:09.014Z,48.40
2018-02-21T04:26:35.296Z,48.40
2018-02-21T04:29:01.500Z,48.20
2018-02-21T04:31:27.965Z,48.50
2018-02-21T04:33:54.165Z,48.50
2018-02-21T04:36:20.377Z,48.50
2018-02-21T04:38:46.793Z,48.50
2018-02-21T04:41:13.062Z,48.80
2018-02-21T04:43:39.268Z,49.20
2018-02-21T04:46:05.699Z,49.00
2018-02-21T04:48:31.954Z,49.30
2018-02-21T04:50:58.150Z,49.40
2018-02-21T04:53:24.600Z,49.10
2018-02-21T04:59:24.134Z,49.70
2018-02-21T05:01:50.373Z,49.90
2018-02-21T05:04:16.602Z,50.20
2018-02-21T05:06:42.841Z,50.00
2018-02-21T05:09:09.032Z,50.30
2018-02-21T05:11:35.265Z,51.10
2018-02-21T05:14:03.077Z,50.80
2018-02-21T05:16:29.280Z,50.80
2018-02-21T05:18:56.217Z,50.80
2018-02-21T05:21:22.568Z,50.80
2018-02-21T05:23:48.762Z,50.70
2018-02-21T05:26:14.989Z,51.00
2018-02-21T05:28:41.197Z,51.00
2018-02-21T05:31:07.389Z,51.30
2018-02-21T05:33:33.564Z,51.20
2018-02-21T05:35:59.926Z,51.30
2018-02-21T05:38:27.028Z,51.40
2018-02-21T05:40:53.944Z,51.50
2018-02-21T05:43:20.145Z,51.50
2018-02-21T05:45:46.392Z,51.80
2018-02-21T05:48:12.625Z,51.90
2018-02-21T05:50:38.797Z,52.00
2018-02-21T05:53:05.090Z,52.40
2018-02-21T05:55:31.263Z,52.30
2018-02-21T05:57:57.462Z,52.80
2018-02-21T06:00:23.725Z,52.70
2018-02-21T06:02:49.953Z,52.90
2018-02-21T06:05:16.146Z,52.90
2018-02-21T06:07:43.125Z,53.10
2018-02-21T06:10:10.225Z,53.20
2018-02-21T06:12:36.440Z,53.20
2018-02-21T06:15:02.673Z,53.20
2018-02-21T06:17:28.933Z,53.20
2018-02-21T06:19:55.150Z,53.20
2018-02-21T06:22:21.354Z,53.70
2018-02-21T06:24:48.530Z,53.50
2018-02-21T06:27:14.799Z,53.50
2018-02-21T06:29:41.194Z,53.50
2018-02-21T06:32:07.624Z,53.60
2018-02-21T06:34:33.790Z,53.50
2018-02-21T06:37:06.340Z,53.90
2018-02-21T06:39:33.597Z,53.80
2018-02-21T06:42:00.430Z,53.50
2018-02-21T06:44:28.456Z,53.50
2018-02-21T06:46:54.678Z,53.50
2018-02-21T06:49:21.042Z,53.60
2018-02-21T06:51:47.254Z,53.40
2018-02-21T06:54:14.049Z,54.00
2018-02-21T06:56:40.273Z,54.90
2018-02-21T06:59:06.561Z,52.40
2018-02-21T07:01:33.501Z,52.50
2018-02-21T07:04:00.800Z,52.50
2018-02-21T07:06:27.012Z,52.50
2018-02-21T07:08:53.221Z,51.00
2018-02-21T07:11:19.417Z,51.50
2018-02-21T07:13:46.348Z,51.00
2018-02-21T07:16:12.652Z,51.00
2018-02-21T07:18:38.921Z,50.70
2018-02-21T07:21:05.195Z,50.80
2018-02-21T07:23:32.230Z,50.70
2018-02-21T07:25:58.453Z,50.70
2018-02-21T07:28:24.661Z,50.80
2018-02-21T07:30:50.878Z,50.40
2018-02-21T07:33:17.092Z,50.20
2018-02-21T07:35:43.303Z,50.40
2018-02-21T07:38:09.777Z,50.10
2018-02-21T07:40:36.173Z,50.10
2018-02-21T07:43:02.374Z,50.20
2018-02-21T07:45:28.816Z,49.80
2018-02-21T07:47:55.055Z,49.90
2018-02-21T07:50:21.270Z,49.30
2018-02-21T07:52:47.637Z,48.60
2018-02-21T07:55:14.117Z,48.90
2018-02-21T07:57:40.404Z,48.30
2018-02-21T08:00:06.677Z,47.80
2018-02-21T08:02:32.874Z,48.10
2018-02-21T08:04:59.084Z,47.50
2018-02-21T08:07:26.089Z,47.30
2018-02-21T08:09:52.430Z,47.20
2018-02-21T08:12:18.676Z,46.90
2018-02-21T08:14:44.874Z,46.60
2018-02-21T08:17:12.029Z,46.40
2018-02-21T08:19:38.987Z,46.30
2018-02-21T08:22:05.950Z,46.60
2018-02-21T08:24:32.150Z,46.50
2018-02-21T08:26:58.553Z,46.60
2018-02-21T08:29:24.757Z,46.70
2018-02-21T08:31:51.707Z,45.70
2018-02-21T08:34:18.150Z,45.80
2018-02-21T08:36:44.376Z,45.50
2018-02-21T08:39:10.580Z,45.80
2018-02-21T08:41:37.114Z,44.80
2018-02-21T08:44:03.439Z,44.80
2018-02-21T08:46:29.653Z,45.40
2018-02-21T08:48:56.077Z,44.70
2018-02-21T08:51:22.320Z,43.90
2018-02-21T08:53:48.565Z,43.50
2018-02-21T08:56:14.779Z,43.30
2018-02-21T08:58:40.988Z,43.70
2018-02-21T09:01:07.197Z,44.10
2018-02-21T09:03:34.444Z,43.20
2018-02-21T09:06:00.875Z,43.50
2018-02-21T09:08:27.099Z,43.10
2018-02-21T09:10:54.045Z,42.70
2018-02-21T09:13:20.456Z,42.70
2018-02-21T09:15:46.662Z,42.50
2018-02-21T09:18:12.865Z,42.10
2018-02-21T09:20:39.065Z,42.10
2018-02-21T09:23:05.240Z,42.40
2018-02-21T09:25:31.417Z,40.60
2018-02-21T09:27:57.651Z,41.60
2018-02-21T09:30:23.840Z,41.20
2018-02-21T09:32:50.046Z,41.00
2018-02-21T09:35:16.399Z,40.70
2018-02-21T09:37:42.577Z,40.10
2018-02-21T09:40:08.808Z,39.50
2018-02-21T09:42:35.028Z,39.80
2018-02-21T09:45:01.208Z,39.30
2018-02-21T09:47:28.181Z,38.70
2018-02-21T09:49:55.104Z,39.10
2018-02-21T09:52:21.455Z,39.10
2018-02-21T09:54:47.646Z,38.00
2018-02-21T09:57:13.827Z,38.50
2018-02-21T09:59:40.210Z,38.10
2018-02-21T10:02:07.130Z,37.00
2018-02-21T10:04:33.391Z,37.00
2018-02-21T10:06:59.588Z,36.10
2018-02-21T10:09:26.082Z,37.40
2018-02-21T10:11:52.307Z,36.70
2018-02-21T10:14:18.549Z,36.30
2018-02-21T10:16:44.949Z,37.20
2018-02-21T10:19:11.153Z,37.00
2018-02-21T10:21:38.145Z,36.50
2018-02-21T10:24:04.403Z,36.50
2018-02-21T10:26:30.604Z,37.10
2018-02-21T10:28:56.890Z,36.30
2018-02-21T10:31:23.860Z,36.30
2018-02-21T10:33:50.079Z,36.50
2018-02-21T10:36:16.285Z,36.20
2018-02-21T10:38:43.213Z,36.00
2018-02-21T10:41:09.597Z,36.00
2018-02-21T10:43:35.813Z,36.00
2018-02-21T10:46:02.026Z,36.00
2018-02-21T10:48:28.402Z,33.70
2018-02-21T10:50:54.594Z,34.60
2018-02-21T10:53:20.789Z,34.80
2018-02-21T10:55:47.185Z,34.60
2018-02-21T10:58:13.500Z,34.40
2018-02-21T11:00:45.815Z,35.00
2018-02-21T11:03:12.147Z,34.90
2018-02-21T11:05:38.349Z,34.00
2018-02-21T11:08:04.619Z,33.60
2018-02-21T11:10:30.926Z,33.10
2018-02-21T11:12:57.897Z,32.80
2018-02-21T11:15:24.861Z,34.00
2018-02-21T11:17:51.803Z,33.20
2018-02-21T11:20:18.859Z,32.60
2018-02-21T11:22:45.076Z,32.50
2018-02-21T11:25:11.260Z,33.10
2018-02-21T11:27:37.668Z,33.80
2018-02-21T11:30:03.975Z,33.00
2018-02-21T11:32:30.132Z,33.30
2018-02-21T11:34:56.588Z,33.80
2018-02-21T11:37:22.824Z,33.30
2018-02-21T11:39:49.075Z,33.40
2018-02-21T11:42:15.475Z,32.80
2018-02-21T11:44:41.723Z,31.70
2018-02-21T11:47:08.098Z,31.50
2018-02-21T11:49:34.345Z,30.20
2018-02-21T11:52:00.546Z,32.60
2018-02-21T11:54:26.768Z,31.60
2018-02-21T11:56:52.967Z,30.50
2018-02-21T11:59:19.323Z,30.40
2018-02-21T12:01:45.544Z,29.40
2018-02-21T12:04:11.848Z,30.60
2018-02-21T12:06:38.149Z,29.70
2018-02-21T12:09:04.409Z,30.40
2018-02-21T12:11:30.616Z,29.70
2018-02-21T12:13:56.840Z,28.90
2018-02-21T12:16:23.108Z,28.00
2018-02-21T12:18:50.072Z,28.30
2018-02-21T12:21:16.365Z,28.30
2018-02-21T12:23:42.632Z,26.30
2018-02-21T12:26:08.904Z,26.20
2018-02-21T12:28:35.794Z,26.90
2018-02-21T12:31:02.025Z,26.20
2018-02-21T12:33:28.221Z,25.90
2018-02-21T12:35:54.541Z,25.90
2018-02-21T12:38:20.751Z,24.20
2018-02-21T12:40:53.033Z,24.80
2018-02-21T12:43:20.140Z,24.50
2018-02-21T12:45:46.392Z,24.50
2018-02-21T12:48:12.610Z,24.40
2018-02-21T12:50:38.940Z,24.40
2018-02-21T12:53:05.148Z,24.20
2018-02-21T12:55:31.368Z,23.80
2018-02-21T12:57:57.618Z,23.50
2018-02-21T13:00:24.773Z,24.00
2018-02-21T13:02:50.934Z,24.00
2018-02-21T13:05:17.952Z,24.00
2018-02-21T13:07:44.242Z,24.00
2018-02-21T13:10:10.469Z,24.40
2018-02-21T13:12:36.795Z,24.40
2018-02-21T13:15:03.045Z,24.40
2018-02-21T13:17:29.225Z,24.40
2018-02-21T13:19:55.532Z,23.30
2018-02-21T13:22:21.762Z,24.10
2018-02-21T13:24:47.996Z,24.70
2018-02-21T13:27:14.188Z,24.50
2018-02-21T13:29:40.528Z,24.40
2018-02-21T13:32:06.749Z,24.20
2018-02-21T13:34:33.013Z,24.80
2018-02-21T13:36:59.265Z,23.90
2018-02-21T13:39:25.496Z,24.90
2018-02-21T13:41:51.720Z,25.10
2018-02-21T13:44:18.075Z,24.90
2018-02-21T13:46:44.254Z,26.10
2018-02-21T13:49:10.456Z,26.00
2018-02-21T13:51:36.677Z,25.50
2018-02-21T13:54:04.879Z,25.60
2018-02-21T13:56:31.055Z,25.60
2018-02-21T13:58:57.253Z,25.30
2018-02-21T14:01:24.208Z,27.00
2018-02-21T14:03:51.210Z,26.00
2018-02-21T14:06:17.414Z,26.00
2018-02-21T14:08:43.595Z,26.50
2018-02-21T14:11:09.778Z,26.00
2018-02-21T14:13:36.064Z,26.10
2018-02-21T14:16:02.274Z,26.50
2018-02-21T14:18:28.522Z,27.00
2018-02-21T14:20:54.789Z,26.00
2018-02-21T14:23:21.007Z,26.50
2018-02-21T14:25:47.202Z,25.70
2018-02-21T14:28:13.385Z,26.50
2018-02-21T14:30:39.698Z,26.30
2018-02-21T14:33:06.804Z,26.30
2018-02-21T14:35:33.003Z,26.80
2018-02-21T14:37:59.942Z,25.90
2018-02-21T14:40:26.209Z,25.90
2018-02-21T14:42:53.196Z,25.90
2018-02-21T14:45:19.445Z,25.90
2018-02-21T14:47:45.630Z,26.40
2018-02-21T14:50:11.861Z,25.30
2018-02-21T14:52:38.045Z,25.70
2018-02-21T14:55:04.300Z,25.40
2018-02-21T14:57:31.365Z,26.30
2018-02-21T14:59:57.582Z,26.30
2018-02-21T15:02:23.791Z,26.20
2018-02-21T15:04:50.128Z,25.80
2018-02-21T15:07:16.292Z,26.50
2018-02-21T15:09:42.509Z,26.20
2018-02-21T15:12:09.846Z,25.20
2018-02-21T15:14:36.043Z,25.00
2018-02-21T15:17:03.013Z,25.00
2018-02-21T15:19:29.213Z,25.00
2018-02-21T15:21:55.584Z,25.00
2018-02-21T15:24:21.794Z,25.20
2018-02-21T15:26:48.011Z,25.00
2018-02-21T15:29:15.650Z,24.60
2018-02-21T15:31:42.205Z,25.50
2018-02-21T15:34:08.601Z,24.20
2018-02-21T15:36:35.034Z,24.80
2018-02-21T15:39:02.106Z,24.70
2018-02-21T15:41:28.454Z,25.20
2018-02-21T15:43:54.862Z,25.10
2018-02-21T15:46:21.500Z,25.80
2018-02-21T15:48:48.151Z,24.80
2018-02-21T15:51:16.833Z,25.60
2018-02-21T15:53:43.942Z,25.30
2018-02-21T15:56:10.406Z,25.20
2018-02-21T15:58:37.132Z,25.30
2018-02-21T16:01:03.580Z,25.60
2018-02-21T16:03:29.971Z,26.10
2018-02-21T16:05:56.362Z,26.10
2018-02-21T16:08:24.489Z,26.00
2018-02-21T16:10:50.972Z,26.70
2018-02-21T16:13:17.451Z,26.60
2018-02-21T16:15:43.807Z,26.00
2018-02-21T16:18:10.222Z,26.60
2018-02-21T16:20:36.673Z,26.50
2018-02-21T16:23:02.986Z,26.80
2018-02-21T16:25:30.224Z,26.70
2018-02-21T16:27:56.401Z,26.60
2018-02-21T16:30:23.372Z,26.70
2018-02-21T16:32:49.588Z,26.10
2018-02-21T16:35:15.829Z,26.60
2018-02-21T16:37:42.009Z,26.40
2018-02-21T16:40:08.189Z,26.30
2018-02-21T16:42:37.092Z,27.40
2018-02-21T16:45:03.594Z,26.80
2018-02-21T16:47:29.776Z,27.00
2018-02-21T16:49:56.002Z,28.20
2018-02-21T16:52:22.304Z,27.90
2018-02-21T16:54:49.216Z,28.00
2018-02-21T16:57:15.422Z,28.10
2018-02-21T16:59:41.613Z,28.00
2018-02-21T17:02:07.822Z,28.80
2018-02-21T17:04:34.009Z,28.70
2018-02-21T17:07:00.951Z,28.90
2018-02-21T17:09:27.149Z,29.00
2018-02-21T17:11:53.352Z,29.10
2018-02-21T17:14:19.555Z,29.30
2018-02-21T17:16:45.824Z,29.20
2018-02-21T17:19:12.745Z,29.20
2018-02-21T17:21:38.941Z,29.20
2018-02-21T17:24:05.424Z,29.10
2018-02-21T17:26:31.640Z,29.60
2018-02-21T17:28:57.827Z,29.70
2018-02-21T17:31:24.461Z,29.40
2018-02-21T17:33:50.673Z,29.90
2018-02-21T17:36:16.856Z,30.30
2018-02-21T17:38:43.091Z,30.50
2018-02-21T17:41:15.384Z,30.10
2018-02-21T17:43:41.616Z,30.20
2018-02-21T17:46:07.943Z,30.30
2018-02-21T17:48:34.144Z,31.00
2018-02-21T17:51:01.068Z,31.10
2018-02-21T17:53:27.781Z,31.20
2018-02-21T17:55:54.047Z,31.50
2018-02-21T17:58:20.278Z,32.10
2018-02-21T18:00:46.656Z,32.00
2018-02-21T18:03:12.929Z,32.00
2018-02-21T18:05:39.145Z,32.30
2018-02-21T18:08:05.385Z,32.50
2018-02-21T18:10:32.545Z,32.50
2018-02-21T18:12:58.765Z,32.50
2018-02-21T18:15:25.000Z,32.60
2018-02-21T18:17:51.405Z,32.60
2018-02-21T18:20:17.662Z,32.50
2018-02-21T18:22:43.847Z,32.70
2018-02-21T18:25:10.503Z,33.00
2018-02-21T18:27:36.701Z,32.70
2018-02-21T18:30:02.981Z,33.10
2018-02-21T18:32:29.362Z,33.00
2018-02-21T18:34:55.686Z,32.90
2018-02-21T18:37:22.642Z,33.30
2018-02-21T18:39:48.896Z,33.20
2018-02-21T18:42:15.383Z,33.60
2018-02-21T18:44:41.628Z,33.80
2018-02-21T18:47:08.913Z,33.90
2018-02-21T18:49:35.241Z,33.90
2018-02-21T18:52:02.712Z,34.20
2018-02-21T18:54:30.019Z,34.00
2018-02-21T18:56:56.983Z,34.70
2018-02-21T18:59:23.171Z,34.70
2018-02-21T19:01:50.404Z,34.70
2018-02-21T19:04:16.725Z,35.00
2018-02-21T19:06:43.674Z,36.00
2018-02-21T19:09:11.420Z,36.00
2018-02-21T19:11:37.765Z,35.50
2018-02-21T19:14:04.070Z,36.70
2018-02-21T19:16:30.283Z,36.10
2018-02-21T19:18:56.858Z,36.90
2018-02-21T19:21:23.077Z,36.60
2018-02-21T19:23:49.278Z,37.30
2018-02-21T19:26:15.616Z,37.20
2018-02-21T19:28:41.835Z,37.30
2018-02-21T19:31:08.097Z,37.20
2018-02-21T19:33:34.368Z,37.20
2018-02-21T19:36:00.552Z,37.20
2018-02-21T19:38:26.774Z,37.20
2018-02-21T19:40:53.732Z,37.10
2018-02-21T19:43:20.077Z,37.10
2018-02-21T19:45:46.276Z,37.60
2018-02-21T19:48:12.456Z,37.70
2018-02-21T19:50:39.477Z,38.20
2018-02-21T19:53:05.651Z,38.20
2018-02-21T19:55:31.876Z,38.40
2018-02-21T19:57:58.250Z,38.40
2018-02-21T20:00:24.452Z,38.40
2018-02-21T20:02:50.662Z,38.80
2018-02-21T20:05:16.953Z,38.50
2018-02-21T20:07:43.333Z,38.90
2018-02-21T20:10:09.606Z,38.70
2018-02-21T20:12:35.927Z,38.30
2018-02-21T20:15:02.250Z,38.40
2018-02-21T20:17:28.496Z,38.70
2018-02-21T20:19:54.987Z,39.30
2018-02-21T20:22:21.200Z,38.90
2018-02-21T20:24:47.465Z,39.60
2018-02-21T20:27:13.735Z,39.10
2018-02-21T20:29:39.897Z,39.30
2018-02-21T20:32:06.182Z,39.90
2018-02-21T20:34:32.398Z,39.50
2018-02-21T20:36:58.816Z,39.70
2018-02-21T20:39:25.058Z,39.80
2018-02-21T20:41:51.328Z,40.00
2018-02-21T20:44:17.773Z,39.60
2018-02-21T20:46:44.053Z,40.10
2018-02-21T20:49:10.297Z,40.10
2018-02-21T20:51:36.596Z,39.90
2018-02-21T20:54:02.861Z,39.80
2018-02-21T20:56:29.117Z,39.80
2018-02-21T20:58:55.645Z,39.70
2018-02-21T21:01:21.894Z,40.10
2018-02-21T21:03:48.126Z,40.30
2018-02-21T21:06:14.666Z,40.80
2018-02-21T21:08:40.953Z,40.50
2018-02-21T21:11:07.128Z,40.60
2018-02-21T21:13:35.311Z,40.70
2018-02-21T21:16:02.299Z,41.30
2018-02-21T21:18:28.533Z,41.10
2018-02-21T21:20:54.755Z,41.10
2018-02-21T21:23:21.493Z,40.50
2018-02-21T21:25:48.545Z,40.90
2018-02-21T21:28:14.784Z,40.80
2018-02-21T21:30:41.006Z,40.70
2018-02-21T21:33:07.445Z,41.10
2018-02-21T21:35:33.704Z,41.10
2018-02-21T21:38:00.070Z,41.60
2018-02-21T21:40:26.608Z,41.60
2018-02-21T21:42:52.835Z,41.80
2018-02-21T21:45:19.112Z,41.70
2018-02-21T21:47:45.366Z,41.60
2018-02-21T21:50:11.572Z,41.40
2018-02-21T21:52:37.810Z,41.80
2018-02-21T21:55:04.768Z,42.20
2018-02-21T21:57:31.904Z,41.60
2018-02-21T21:59:58.086Z,41.60
2018-02-21T22:02:25.057Z,41.90
2018-02-21T22:04:51.454Z,41.70
2018-02-21T22:07:17.721Z,41.90
2018-02-21T22:09:43.910Z,41.80
2018-02-21T22:12:10.363Z,42.20
2018-02-21T22:14:36.592Z,42.50
2018-02-21T22:17:02.833Z,42.00
2018-02-21T22:19:29.216Z,42.30
2018-02-21T22:21:55.444Z,42.00
2018-02-21T22:24:21.650Z,42.10
2018-02-21T22:26:47.955Z,42.40
2018-02-21T22:29:14.275Z,42.20
2018-02-21T22:31:40.485Z,42.40
2018-02-21T22:34:06.724Z,42.60
2018-02-21T22:36:32.942Z,43.00
2018-02-21T22:38:59.177Z,43.00
2018-02-21T22:41:25.404Z,43.10
2018-02-21T22:43:52.659Z,43.20
2018-02-21T22:46:18.838Z,43.30
2018-02-21T22:48:45.050Z,43.10
2018-02-21T22:51:12.867Z,43.50
2018-02-21T22:53:39.116Z,43.40
2018-02-21T22:56:05.315Z,43.60
2018-02-21T22:58:31.523Z,43.70
2018-02-21T23:00:57.813Z,43.40
2018-02-21T23:03:24.073Z,43.70
2018-02-21T23:05:50.273Z,43.40
2018-02-21T23:08:16.511Z,43.80
2018-02-21T23:10:42.723Z,43.60
2018-02-21T23:13:08.981Z,44.30
2018-02-21T23:15:36.285Z,44.50
2018-02-21T23:18:02.515Z,43.70
2018-02-21T23:20:29.564Z,44.10
2018-02-21T23:22:55.737Z,44.10
2018-02-21T23:25:22.455Z,44.40
2018-02-21T23:27:48.668Z,44.40
2018-02-21T23:30:15.940Z,44.50
2018-02-21T23:32:42.333Z,44.00
2018-02-21T23:35:08.617Z,44.40
2018-02-21T23:37:34.819Z,44.20
2018-02-21T23:40:01.262Z,44.20
2018-02-21T23:42:27.480Z,44.30
2018-02-21T23:44:54.458Z,44.40
2018-02-21T23:47:20.698Z,44.40
2018-02-21T23:49:47.377Z,44.30
2018-02-21T23:52:13.574Z,43.90
2018-02-21T23:54:39.824Z,44.20
2018-02-21T23:57:06.815Z,44.20
2018-02-21T23:59:33.053Z,44.20
